createdAt,value
2023-03-26T00:00:31.072Z,97947.16
2023-03-26T00:02:54.847Z,97949.05
2023-03-26T00:04:57.347Z,97947.13
2023-03-26T00:07:01.944Z,97951.76
2023-03-26T00:09:06.455Z,97955.58
2023-03-26T00:11:11.304Z,97956.66
2023-03-26T00:13:14.181Z,97957.89
2023-03-26T00:15:17.177Z,97956.19
2023-03-26T00:17:19.873Z,97954.10
2023-03-26T00:19:22.892Z,97954.86
2023-03-26T00:21:27.893Z,97946.83
2023-03-26T00:23:34.961Z,97944.48
2023-03-26T00:25:41.803Z,97941.88
2023-03-26T00:27:45.715Z,97946.09
2023-03-26T00:29:49.293Z,97945.27
2023-03-26T00:31:54.478Z,97948.83
2023-03-26T00:34:03.570Z,97951.19
2023-03-26T00:36:10.901Z,97949.19
2023-03-26T00:38:14.735Z,97946.11
2023-03-26T00:40:17.577Z,97942.79
2023-03-26T00:42:20.731Z,97946.02
2023-03-26T00:44:23.457Z,97948.47
2023-03-26T00:46:28.435Z,97946.71
2023-03-26T00:48:44.023Z,97942.44
2023-03-26T00:50:49.711Z,97944.41
2023-03-26T00:52:55.831Z,97940.88
2023-03-26T00:55:00.223Z,97939.30
2023-03-26T00:57:06.983Z,97937.64
2023-03-26T00:59:10.032Z,97936.71
2023-03-26T01:01:16.550Z,97937.64
2023-03-26T01:03:27.663Z,97940.02
2023-03-26T01:05:34.162Z,97939.32
2023-03-26T01:07:37.057Z,97943.71
2023-03-26T01:09:45.760Z,97943.86
2023-03-26T01:11:50.024Z,97941.85
2023-03-26T01:13:57.817Z,97938.14
2023-03-26T01:16:02.148Z,97940.45
2023-03-26T01:18:05.948Z,97941.11
2023-03-26T01:20:26.887Z,97943.34
2023-03-26T01:22:29.526Z,97946.14
2023-03-26T01:24:32.558Z,97947.35
2023-03-26T01:26:54.509Z,97944.13
2023-03-26T01:29:03.963Z,97950.73
2023-03-26T01:31:30.204Z,97954.08
2023-03-26T01:33:55.148Z,97951.89
2023-03-26T01:36:05.089Z,97946.02
2023-03-26T01:38:23.431Z,97942.19
2023-03-26T01:40:43.031Z,97937.79
2023-03-26T01:42:56.254Z,97939.69
2023-03-26T01:45:07.926Z,97941.14
2023-03-26T01:47:13.223Z,97931.79
2023-03-26T01:49:18.498Z,97932.40
2023-03-26T01:51:31.121Z,97928.73
2023-03-26T01:53:37.888Z,97928.89
2023-03-26T01:55:56.118Z,97929.91
2023-03-26T01:58:12.712Z,97929.91
2023-03-26T02:00:32.416Z,97929.77
2023-03-26T02:02:55.156Z,97928.84
2023-03-26T02:05:16.975Z,97925.95
2023-03-26T02:07:28.774Z,97924.26
2023-03-26T02:09:40.952Z,97922.42
2023-03-26T02:11:45.383Z,97921.84
2023-03-26T02:13:48.487Z,97918.48
2023-03-26T02:15:59.840Z,97923.10
2023-03-26T02:18:04.086Z,97915.63
2023-03-26T02:20:10.560Z,97909.96
2023-03-26T02:22:16.035Z,97909.67
2023-03-26T02:24:20.262Z,97909.38
2023-03-26T02:26:24.841Z,97903.89
2023-03-26T02:28:41.781Z,97896.75
2023-03-26T02:30:45.902Z,97894.42
2023-03-26T02:32:52.245Z,97894.63
2023-03-26T02:34:55.305Z,97885.17
2023-03-26T02:36:58.551Z,97872.74
2023-03-26T02:39:01.504Z,97868.66
2023-03-26T02:41:06.212Z,97866.46
2023-03-26T02:43:22.602Z,97863.71
2023-03-26T02:45:25.306Z,97867.59
2023-03-26T02:47:43.369Z,97866.10
2023-03-26T02:50:12.263Z,97864.23
2023-03-26T02:52:28.329Z,97862.20
2023-03-26T02:54:34.165Z,97863.02
2023-03-26T02:57:06.172Z,97864.49
2023-03-26T02:59:42.717Z,97862.63
2023-03-26T03:02:18.370Z,97865.27
2023-03-26T03:04:22.024Z,97863.92
2023-03-26T03:06:26.753Z,97872.09
2023-03-26T03:08:34.084Z,97872.52
2023-03-26T03:10:43.594Z,97867.81
2023-03-26T03:12:54.441Z,97868.21
2023-03-26T03:14:57.537Z,97868.26
2023-03-26T03:17:01.883Z,97870.78
2023-03-26T03:19:06.401Z,97865.49
2023-03-26T03:21:13.885Z,97867.73
2023-03-26T03:23:17.140Z,97864.96
2023-03-26T03:25:22.233Z,97865.70
2023-03-26T03:27:26.222Z,97866.01
2023-03-26T03:29:44.315Z,97863.90
2023-03-26T03:32:04.439Z,97862.13
2023-03-26T03:34:13.654Z,97851.86
2023-03-26T03:36:22.694Z,97855.59
2023-03-26T03:38:38.550Z,97857.02
2023-03-26T03:40:41.442Z,97861.42
2023-03-26T03:42:44.647Z,97861.50
2023-03-26T03:44:47.820Z,97861.02
2023-03-26T03:47:17.015Z,97855.18
2023-03-26T03:49:20.183Z,97854.59
2023-03-26T03:51:23.382Z,97860.42
2023-03-26T03:53:37.190Z,97859.48
2023-03-26T03:55:41.975Z,97857.92
2023-03-26T03:57:45.824Z,97860.09
2023-03-26T03:59:58.581Z,97856.40
2023-03-26T04:02:03.176Z,97856.20
2023-03-26T04:04:13.292Z,97855.33
2023-03-26T04:06:25.640Z,97856.42
2023-03-26T04:08:28.893Z,97856.70
2023-03-26T04:10:32.161Z,97854.06
2023-03-26T04:12:37.279Z,97848.77
2023-03-26T04:14:41.679Z,97849.45
2023-03-26T04:16:50.211Z,97847.09
2023-03-26T04:18:53.064Z,97850.98
2023-03-26T04:20:55.965Z,97848.33
2023-03-26T04:23:04.773Z,97850.58
2023-03-26T04:25:11.430Z,97847.41
2023-03-26T04:27:32.025Z,97845.70
2023-03-26T04:29:49.831Z,97845.66
2023-03-26T04:32:06.559Z,97846.09
2023-03-26T04:34:24.400Z,97845.38
2023-03-26T04:36:35.803Z,97845.78
2023-03-26T04:38:49.237Z,97849.86
2023-03-26T04:40:53.168Z,97850.59
2023-03-26T04:43:14.308Z,97847.04
2023-03-26T04:45:35.464Z,97848.98
2023-03-26T04:47:40.359Z,97846.58
2023-03-26T04:49:47.791Z,97845.59
2023-03-26T04:51:54.613Z,97846.59
2023-03-26T04:54:26.617Z,97845.90
2023-03-26T04:56:54.271Z,97843.58
2023-03-26T04:59:30.493Z,97843.52
2023-03-26T05:01:37.878Z,97844.46
2023-03-26T05:03:42.001Z,97844.08
2023-03-26T05:05:46.657Z,97851.54
2023-03-26T05:07:49.770Z,97840.80
2023-03-26T05:09:53.242Z,97834.11
2023-03-26T05:11:59.756Z,97832.94
2023-03-26T05:14:03.693Z,97822.39
2023-03-26T05:16:06.713Z,97821.90
2023-03-26T05:18:30.106Z,97816.04
2023-03-26T05:20:35.671Z,97819.23
2023-03-26T05:22:39.929Z,97817.98
2023-03-26T05:24:52.330Z,97819.13
2023-03-26T05:26:56.512Z,97816.11
2023-03-26T05:29:03.145Z,97817.46
2023-03-26T05:31:13.868Z,97817.88
2023-03-26T05:33:21.611Z,97813.85
2023-03-26T05:35:29.289Z,97806.78
2023-03-26T05:37:33.065Z,97804.51
2023-03-26T05:39:41.214Z,97807.23
2023-03-26T05:41:53.547Z,97806.13
2023-03-26T05:43:57.866Z,97802.29
2023-03-26T05:46:05.584Z,97799.14
2023-03-26T05:48:10.332Z,97797.96
2023-03-26T05:50:13.217Z,97794.82
2023-03-26T05:52:19.066Z,97793.83
2023-03-26T05:54:40.235Z,97790.77
2023-03-26T05:57:02.095Z,97789.77
2023-03-26T05:59:30.668Z,97791.74
2023-03-26T06:01:54.448Z,97783.58
2023-03-26T06:04:29.377Z,97776.48
2023-03-26T06:06:47.905Z,97772.11
2023-03-26T06:09:01.608Z,97768.08
2023-03-26T06:11:08.360Z,97762.44
2023-03-26T06:13:16.212Z,97757.81
2023-03-26T06:15:21.314Z,97753.70
2023-03-26T06:17:30.942Z,97750.16
2023-03-26T06:19:47.967Z,97747.39
2023-03-26T06:21:59.988Z,97745.31
2023-03-26T06:24:08.668Z,97739.67
2023-03-26T06:26:24.664Z,97735.45
2023-03-26T06:28:46.214Z,97737.73
2023-03-26T06:31:09.270Z,97737.11
2023-03-26T06:33:30.803Z,97728.13
2023-03-26T06:35:34.890Z,97728.69
2023-03-26T06:37:38.786Z,97724.52
2023-03-26T06:39:43.093Z,97723.44
2023-03-26T06:41:57.640Z,97721.60
2023-03-26T06:44:19.394Z,97724.05
2023-03-26T06:46:48.941Z,97721.20
2023-03-26T06:49:19.051Z,97723.11
2023-03-26T06:51:41.456Z,97722.33
2023-03-26T06:53:44.081Z,97720.82
2023-03-26T06:55:54.632Z,97707.54
2023-03-26T06:58:14.369Z,97705.81
2023-03-26T07:00:37.520Z,97706.02
2023-03-26T07:03:03.866Z,97702.36
2023-03-26T07:05:28.288Z,97703.92
2023-03-26T07:07:49.873Z,97701.07
2023-03-26T07:10:12.381Z,97699.44
2023-03-26T07:12:46.433Z,97696.01
2023-03-26T07:15:10.366Z,97695.73
2023-03-26T07:17:36.160Z,97690.85
2023-03-26T07:19:53.723Z,97685.22
2023-03-26T07:22:03.443Z,97684.28
2023-03-26T07:24:35.397Z,97687.20
2023-03-26T07:27:07.179Z,97682.25
2023-03-26T07:29:23.468Z,97675.39
2023-03-26T07:31:50.878Z,97673.17
2023-03-26T07:34:25.617Z,97673.14
2023-03-26T07:36:57.574Z,97671.71
2023-03-26T07:39:41.179Z,97671.22
2023-03-26T07:41:58.647Z,97672.57
2023-03-26T07:44:42.481Z,97666.88
2023-03-26T07:47:26.332Z,97665.41
2023-03-26T07:49:48.087Z,97658.14
2023-03-26T07:51:51.244Z,97653.61
2023-03-26T07:54:20.783Z,97652.84
2023-03-26T07:57:02.007Z,97650.54
2023-03-26T07:59:43.492Z,97645.73
2023-03-26T08:02:04.719Z,97642.09
2023-03-26T08:04:58.735Z,97639.43
2023-03-26T08:07:25.642Z,97631.78
2023-03-26T08:10:20.623Z,97627.14
2023-03-26T08:12:56.606Z,97623.25
2023-03-26T08:15:18.100Z,97620.55
2023-03-26T08:17:39.477Z,97615.84
2023-03-26T08:19:55.132Z,97613.44
2023-03-26T08:22:26.422Z,97611.42
2023-03-26T08:24:43.324Z,97604.99
2023-03-26T08:27:18.747Z,97599.34
2023-03-26T08:29:50.060Z,97594.09
2023-03-26T08:31:54.380Z,97591.80
2023-03-26T08:33:57.106Z,97591.71
2023-03-26T08:36:00.015Z,97588.80
2023-03-26T08:38:02.827Z,97592.73
2023-03-26T08:40:06.670Z,97592.70
2023-03-26T08:42:33.836Z,97588.92
2023-03-26T08:44:59.657Z,97588.36
2023-03-26T08:47:21.070Z,97587.88
2023-03-26T08:49:46.786Z,97588.92
2023-03-26T08:52:09.336Z,97584.83
2023-03-26T08:54:26.077Z,97578.10
2023-03-26T08:56:53.394Z,97571.32
2023-03-26T08:59:26.414Z,97573.71
2023-03-26T09:01:45.957Z,97572.40
2023-03-26T09:04:10.489Z,97570.91
2023-03-26T09:06:29.709Z,97565.80
2023-03-26T09:08:32.393Z,97565.03
2023-03-26T09:11:13.945Z,97560.61
2023-03-26T09:13:23.084Z,97551.95
2023-03-26T09:15:47.167Z,97545.38
2023-03-26T09:18:09.465Z,97544.56
2023-03-26T09:20:48.698Z,97538.13
2023-03-26T09:23:22.721Z,97532.20
2023-03-26T09:25:34.532Z,97525.73
2023-03-26T09:27:48.780Z,97525.13
2023-03-26T09:30:21.317Z,97525.92
2023-03-26T09:32:54.548Z,97521.73
2023-03-26T09:35:13.076Z,97519.23
2023-03-26T09:38:05.918Z,97516.60
2023-03-26T09:40:22.464Z,97517.08
2023-03-26T09:43:11.562Z,97517.86
2023-03-26T09:45:38.375Z,97519.86
2023-03-26T09:48:05.555Z,97520.95
2023-03-26T09:50:30.012Z,97520.88
2023-03-26T09:52:59.333Z,97520.79
2023-03-26T09:55:10.484Z,97521.42
2023-03-26T09:57:26.341Z,97515.61
2023-03-26T09:59:35.695Z,97517.46
2023-03-26T10:02:05.406Z,97522.94
2023-03-26T10:04:27.645Z,97519.39
2023-03-26T10:06:47.414Z,97522.29
2023-03-26T10:09:00.341Z,97520.81
2023-03-26T10:11:52.618Z,97520.95
2023-03-26T10:14:18.894Z,97523.14
2023-03-26T10:16:34.666Z,97524.20
2023-03-26T10:19:00.023Z,97522.40
2023-03-26T10:21:13.614Z,97521.25
2023-03-26T10:24:00.517Z,97523.09
2023-03-26T10:26:08.848Z,97527.88
2023-03-26T10:29:00.371Z,97518.23
2023-03-26T10:31:25.722Z,97519.06
2023-03-26T10:34:00.560Z,97513.31
2023-03-26T10:36:20.688Z,97510.81
2023-03-26T10:38:35.624Z,97507.82
2023-03-26T10:40:55.629Z,97509.88
2023-03-26T10:43:36.304Z,97509.82
2023-03-26T10:46:09.968Z,97506.80
2023-03-26T10:48:36.748Z,97502.19
2023-03-26T10:50:57.383Z,97499.30
2023-03-26T10:53:36.124Z,97497.72
2023-03-26T10:55:46.674Z,97497.23
2023-03-26T10:57:54.003Z,97495.79
2023-03-26T11:00:01.971Z,97492.10
2023-03-26T11:02:30.808Z,97492.12
2023-03-26T11:05:01.079Z,97495.10
2023-03-26T11:07:36.660Z,97495.64
2023-03-26T11:09:55.398Z,97497.89
2023-03-26T11:12:25.701Z,97499.09
2023-03-26T11:14:48.666Z,97495.77
2023-03-26T11:17:01.959Z,97498.40
2023-03-26T11:19:21.913Z,97490.79
2023-03-26T11:21:43.710Z,97489.39
2023-03-26T11:24:13.450Z,97480.08
2023-03-26T11:26:42.280Z,97483.84
2023-03-26T11:29:03.956Z,97479.73
2023-03-26T11:31:20.520Z,97473.46
2023-03-26T11:33:32.809Z,97477.21
2023-03-26T11:35:41.066Z,97476.30
2023-03-26T11:37:53.297Z,97472.60
2023-03-26T11:39:59.404Z,97473.46
2023-03-26T11:42:22.016Z,97470.84
2023-03-26T11:44:32.396Z,97467.34
2023-03-26T11:46:40.875Z,97466.07
2023-03-26T11:48:57.452Z,97457.25
2023-03-26T11:51:10.426Z,97458.98
2023-03-26T11:53:18.029Z,97454.94
2023-03-26T11:55:21.181Z,97450.79
2023-03-26T11:57:33.206Z,97450.73
2023-03-26T11:59:56.265Z,97451.67
2023-03-26T12:02:20.026Z,97454.19
2023-03-26T12:04:29.997Z,97450.40
2023-03-26T12:06:36.308Z,97451.97
2023-03-26T12:08:41.910Z,97450.73
2023-03-26T12:11:04.354Z,97448.90
2023-03-26T12:13:23.719Z,97446.35
2023-03-26T12:15:29.681Z,97444.48
2023-03-26T12:17:39.702Z,97443.99
2023-03-26T12:19:44.995Z,97440.61
2023-03-26T12:21:51.428Z,97432.70
2023-03-26T12:24:02.016Z,97426.30
2023-03-26T12:26:36.406Z,97421.30
2023-03-26T12:28:48.640Z,97403.30
2023-03-26T12:31:07.592Z,97392.61
2023-03-26T12:33:26.115Z,97386.13
2023-03-26T12:35:31.176Z,97382.09
2023-03-26T12:37:42.649Z,97379.88
2023-03-26T12:40:10.169Z,97375.85
2023-03-26T12:44:45.937Z,97375.15
2023-03-26T12:45:00.062Z,97374.45
2023-03-26T12:48:00.659Z,97378.98
2023-03-26T12:49:36.703Z,97376.27
2023-03-26T12:51:44.558Z,97371.02
2023-03-26T12:53:56.058Z,97361.97
2023-03-26T12:56:02.199Z,97358.95
2023-03-26T12:58:23.712Z,97352.74
2023-03-26T13:00:53.782Z,97352.21
2023-03-26T13:03:14.941Z,97350.95
2023-03-26T13:05:37.109Z,97347.16
2023-03-26T13:08:09.460Z,97342.04
2023-03-26T13:10:36.571Z,97340.27
2023-03-26T13:12:58.029Z,97338.25
2023-03-26T13:15:13.071Z,97335.46
2023-03-26T13:17:29.271Z,97334.20
2023-03-26T13:20:00.750Z,97334.03
2023-03-26T13:22:33.753Z,97332.97
2023-03-26T13:24:55.661Z,97328.66
2023-03-26T13:27:22.690Z,97318.15
2023-03-26T13:29:56.570Z,97310.36
2023-03-26T13:32:22.903Z,97307.94
2023-03-26T13:34:49.614Z,97309.73
2023-03-26T13:37:12.618Z,97309.86
2023-03-26T13:39:54.608Z,97310.17
2023-03-26T13:42:22.289Z,97310.00
2023-03-26T13:44:47.277Z,97304.59
2023-03-26T13:46:55.886Z,97302.69
2023-03-26T13:49:10.818Z,97302.91
2023-03-26T13:51:21.965Z,97301.72
2023-03-26T13:53:32.986Z,97295.90
2023-03-26T13:55:41.843Z,97301.27
2023-03-26T13:57:57.181Z,97300.36
2023-03-26T14:00:58.491Z,97301.08
2023-03-26T14:03:16.499Z,97305.25
2023-03-26T14:05:34.098Z,97304.65
2023-03-26T14:08:02.488Z,97296.73
2023-03-26T14:10:12.436Z,97296.17
2023-03-26T14:12:51.741Z,97292.10
2023-03-26T14:15:13.891Z,97291.79
2023-03-26T14:17:29.548Z,97295.09
2023-03-26T14:20:14.851Z,97289.73
2023-03-26T14:22:45.668Z,97287.80
2023-03-26T14:25:18.652Z,97283.62
2023-03-26T14:27:37.449Z,97282.77
2023-03-26T14:29:56.949Z,97279.29
2023-03-26T14:32:13.189Z,97276.78
2023-03-26T14:34:45.430Z,97273.79
2023-03-26T14:37:27.086Z,97268.98
2023-03-26T14:40:14.714Z,97270.85
2023-03-26T14:42:45.102Z,97265.75
2023-03-26T14:45:09.591Z,97263.88
2023-03-26T14:47:21.093Z,97266.20
2023-03-26T14:49:40.838Z,97262.62
2023-03-26T14:51:43.637Z,97259.33
2023-03-26T14:53:54.499Z,97255.70
2023-03-26T14:56:39.900Z,97255.36
2023-03-26T14:58:56.165Z,97254.10
2023-03-26T15:01:22.810Z,97249.11
2023-03-26T15:04:02.292Z,97239.95
2023-03-26T15:06:26.755Z,97240.36
2023-03-26T15:08:46.051Z,97245.13
2023-03-26T15:11:35.180Z,97249.84
2023-03-26T15:13:59.779Z,97250.65
2023-03-26T15:16:27.521Z,97250.98
2023-03-26T15:18:45.078Z,97262.14
2023-03-26T15:21:20.266Z,97263.73
2023-03-26T15:23:39.243Z,97268.55
2023-03-26T15:26:19.149Z,97266.71
2023-03-26T15:29:19.484Z,97254.58
2023-03-26T15:31:53.031Z,97254.98
2023-03-26T15:34:20.477Z,97258.59
2023-03-26T15:36:56.395Z,97256.30
2023-03-26T15:39:17.820Z,97250.33
2023-03-26T15:41:26.280Z,97244.94
2023-03-26T15:44:24.308Z,97246.20
2023-03-26T15:46:53.249Z,97248.79
2023-03-26T15:49:20.000Z,97245.73
2023-03-26T15:51:46.471Z,97247.19
2023-03-26T15:54:16.967Z,97245.09
2023-03-26T15:56:44.181Z,97239.63
2023-03-26T15:59:06.222Z,97236.11
2023-03-26T16:01:38.387Z,97235.60
2023-03-26T16:03:53.679Z,97230.73
2023-03-26T16:06:32.739Z,97228.84
2023-03-26T16:08:48.835Z,97227.70
2023-03-26T16:10:57.523Z,97224.69
2023-03-26T16:13:39.006Z,97230.41
2023-03-26T16:15:42.655Z,97231.33
2023-03-26T16:18:16.896Z,97230.30
2023-03-26T16:20:31.271Z,97228.30
2023-03-26T16:22:42.498Z,97233.84
2023-03-26T16:24:47.685Z,97234.98
2023-03-26T16:27:27.424Z,97232.48
2023-03-26T16:29:31.449Z,97219.41
2023-03-26T16:31:38.405Z,97217.98
2023-03-26T16:33:50.585Z,97213.23
2023-03-26T16:36:11.418Z,97213.61
2023-03-26T16:38:16.436Z,97218.42
2023-03-26T16:40:22.426Z,97219.25
2023-03-26T16:43:10.300Z,97219.30
2023-03-26T16:45:21.075Z,97219.45
2023-03-26T16:47:47.063Z,97216.52
2023-03-26T16:50:12.168Z,97212.66
2023-03-26T16:52:42.851Z,97215.28
2023-03-26T16:54:51.470Z,97211.29
2023-03-26T16:57:23.038Z,97205.85
2023-03-26T16:59:46.679Z,97201.84
2023-03-26T17:02:33.695Z,97205.29
2023-03-26T17:04:37.403Z,97207.25
2023-03-26T17:06:45.816Z,97206.99
2023-03-26T17:08:57.385Z,97204.41
2023-03-26T17:11:29.027Z,97209.14
2023-03-26T17:13:55.990Z,97209.98
2023-03-26T17:16:33.479Z,97215.61
2023-03-26T17:18:54.992Z,97214.40
2023-03-26T17:21:22.913Z,97213.55
2023-03-26T17:23:43.891Z,97217.45
2023-03-26T17:26:37.301Z,97226.27
2023-03-26T17:29:07.846Z,97226.33
2023-03-26T17:31:20.134Z,97227.33
2023-03-26T17:33:26.698Z,97226.70
2023-03-26T17:35:47.388Z,97225.82
2023-03-26T17:37:51.651Z,97225.56
2023-03-26T17:40:10.613Z,97225.82
2023-03-26T17:42:16.251Z,97223.21
2023-03-26T17:44:38.626Z,97223.42
2023-03-26T17:46:45.491Z,97223.06
2023-03-26T17:49:01.462Z,97223.14
2023-03-26T17:51:34.937Z,97221.59
2023-03-26T17:53:38.008Z,97218.52
2023-03-26T17:55:45.825Z,97216.20
2023-03-26T17:57:58.525Z,97214.31
2023-03-26T18:00:02.527Z,97215.38
2023-03-26T18:02:22.495Z,97219.06
2023-03-26T18:04:35.127Z,97220.61
2023-03-26T18:06:56.149Z,97223.29
2023-03-26T18:09:33.498Z,97226.01
2023-03-26T18:12:04.071Z,97228.98
2023-03-26T18:14:45.742Z,97231.13
2023-03-26T18:16:52.833Z,97219.40
2023-03-26T18:19:01.834Z,97215.84
2023-03-26T18:21:09.544Z,97217.43
2023-03-26T18:23:21.101Z,97217.17
2023-03-26T18:25:32.397Z,97225.44
2023-03-26T18:27:41.309Z,97228.69
2023-03-26T18:29:57.609Z,97224.80
2023-03-26T18:32:22.427Z,97230.11
2023-03-26T18:34:29.170Z,97242.34
2023-03-26T18:36:32.117Z,97249.19
2023-03-26T18:40:57.379Z,97253.12
2023-03-26T18:43:01.175Z,97253.54
2023-03-26T18:45:21.532Z,97259.84
2023-03-26T18:47:28.867Z,97266.35
2023-03-26T18:49:32.868Z,97261.98
2023-03-26T18:51:46.473Z,97264.63
2023-03-26T18:54:00.216Z,97283.48
2023-03-26T18:56:19.190Z,97314.44
2023-03-26T18:58:28.128Z,97308.33
2023-03-26T19:00:33.547Z,97305.55
2023-03-26T19:02:36.792Z,97315.69
2023-03-26T19:04:46.135Z,97318.52
2023-03-26T19:06:55.291Z,97320.40
2023-03-26T19:08:59.256Z,97319.48
2023-03-26T19:11:04.775Z,97317.44
2023-03-26T19:13:13.789Z,97313.30
2023-03-26T19:15:17.298Z,97314.27
2023-03-26T19:17:21.250Z,97308.33
2023-03-26T19:19:29.558Z,97309.27
2023-03-26T19:21:34.404Z,97312.15
2023-03-26T19:23:41.530Z,97320.88
2023-03-26T19:25:48.304Z,97319.98
2023-03-26T19:27:51.792Z,97322.26
2023-03-26T19:29:54.706Z,97321.36
2023-03-26T19:32:20.935Z,97319.08
2023-03-26T19:34:36.264Z,97314.19
2023-03-26T19:36:58.088Z,97310.27
2023-03-26T19:39:00.817Z,97307.66
2023-03-26T19:41:04.228Z,97303.45
2023-03-26T19:43:13.571Z,97304.39
2023-03-26T19:45:23.167Z,97297.70
2023-03-26T19:49:51.274Z,97295.42
2023-03-26T19:52:04.713Z,97290.08
2023-03-26T19:54:16.190Z,97292.48
2023-03-26T19:56:21.016Z,97292.56
2023-03-26T19:58:26.239Z,97294.48
2023-03-26T20:00:29.938Z,97288.30
2023-03-26T20:02:44.758Z,97288.42
2023-03-26T20:04:49.869Z,97290.20
2023-03-26T20:06:53.090Z,97286.94
2023-03-26T20:08:56.422Z,97285.73
2023-03-26T20:10:59.410Z,97287.65
2023-03-26T20:13:02.504Z,97288.68
2023-03-26T20:15:19.396Z,97287.16
2023-03-26T20:17:22.591Z,97284.23
2023-03-26T20:19:26.366Z,97287.08
2023-03-26T20:21:32.431Z,97287.50
2023-03-26T20:23:35.718Z,97280.15
2023-03-26T20:25:46.438Z,97277.59
2023-03-26T20:27:49.370Z,97283.09
2023-03-26T20:29:52.049Z,97282.77
2023-03-26T20:31:56.311Z,97284.90
2023-03-26T20:33:59.827Z,97287.40
2023-03-26T20:36:02.667Z,97288.02
2023-03-26T20:38:06.534Z,97289.11
2023-03-26T20:40:09.400Z,97289.43
2023-03-26T20:42:15.997Z,97291.50
2023-03-26T20:44:21.210Z,97285.79
2023-03-26T20:46:31.281Z,97287.78
2023-03-26T20:48:45.496Z,97287.58
2023-03-26T20:50:51.336Z,97279.92
2023-03-26T20:52:55.140Z,97273.52
2023-03-26T20:54:58.874Z,97273.11
2023-03-26T20:57:02.365Z,97270.87
2023-03-26T20:59:10.888Z,97274.17
2023-03-26T21:01:14.771Z,97276.70
2023-03-26T21:03:21.161Z,97274.84
2023-03-26T21:05:26.893Z,97278.79
2023-03-26T21:07:29.947Z,97279.64
2023-03-26T21:09:39.516Z,97284.28
2023-03-26T21:11:50.248Z,97286.20
2023-03-26T21:14:06.676Z,97284.90
2023-03-26T21:16:10.967Z,97288.73
2023-03-26T21:18:14.349Z,97290.58
2023-03-26T21:20:18.961Z,97293.45
2023-03-26T21:22:36.057Z,97289.70
2023-03-26T21:25:03.151Z,97293.13
2023-03-26T21:27:34.611Z,97291.45
2023-03-26T21:29:38.300Z,97292.92
2023-03-26T21:31:41.791Z,97291.83
2023-03-26T21:33:46.636Z,97290.58
2023-03-26T21:35:51.657Z,97295.61
2023-03-26T21:37:57.702Z,97291.67
2023-03-26T21:40:07.904Z,97290.54
2023-03-26T21:42:12.347Z,97292.83
2023-03-26T21:44:19.468Z,97295.23
2023-03-26T21:46:22.287Z,97290.14
2023-03-26T21:48:25.211Z,97287.02
2023-03-26T21:50:28.155Z,97291.02
2023-03-26T21:52:32.271Z,97288.80
2023-03-26T21:54:35.369Z,97293.25
2023-03-26T21:56:49.984Z,97295.59
2023-03-26T21:58:55.650Z,97293.94
2023-03-26T22:01:17.972Z,97295.94
2023-03-26T22:03:32.961Z,97295.48
2023-03-26T22:05:49.807Z,97295.08
2023-03-26T22:08:06.566Z,97296.25
2023-03-26T22:10:09.565Z,97293.52
2023-03-26T22:12:13.196Z,97293.29
2023-03-26T22:14:16.063Z,97296.67
2023-03-26T22:16:18.891Z,97299.60
2023-03-26T22:18:21.747Z,97300.42
2023-03-26T22:20:25.113Z,97303.81
2023-03-26T22:22:41.812Z,97304.90
2023-03-26T22:24:46.478Z,97304.35
2023-03-26T22:26:49.164Z,97306.56
2023-03-26T22:28:51.852Z,97310.72
2023-03-26T22:30:54.926Z,97310.23
2023-03-26T22:32:59.234Z,97308.85
2023-03-26T22:35:03.724Z,97311.45
2023-03-26T22:37:06.811Z,97314.10
2023-03-26T22:39:14.606Z,97318.38
2023-03-26T22:41:19.121Z,97320.62
2023-03-26T22:43:21.682Z,97320.05
2023-03-26T22:45:24.726Z,97328.64
2023-03-26T22:47:27.684Z,97331.10
2023-03-26T22:49:31.544Z,97330.27
2023-03-26T22:51:35.517Z,97330.58
2023-03-26T22:53:41.463Z,97333.26
2023-03-26T22:55:44.508Z,97332.23
2023-03-26T22:57:47.345Z,97334.64
2023-03-26T22:59:51.689Z,97336.55
2023-03-26T23:01:55.060Z,97338.27
2023-03-26T23:03:59.725Z,97347.06
2023-03-26T23:06:06.322Z,97351.91
2023-03-26T23:08:09.072Z,97353.95
2023-03-26T23:10:11.828Z,97354.98
2023-03-26T23:12:14.300Z,97359.50
2023-03-26T23:14:16.953Z,97361.66
2023-03-26T23:16:21.400Z,97363.86
2023-03-26T23:18:25.131Z,97365.07
2023-03-26T23:20:30.163Z,97370.04
2023-03-26T23:22:35.253Z,97374.19
2023-03-26T23:24:40.087Z,97380.46
2023-03-26T23:26:50.478Z,97380.88
2023-03-26T23:28:53.962Z,97385.05
2023-03-26T23:30:57.070Z,97391.08
2023-03-26T23:32:59.920Z,97390.31
2023-03-26T23:35:02.758Z,97393.27
2023-03-26T23:37:05.487Z,97387.40
2023-03-26T23:39:09.054Z,97388.58
2023-03-26T23:41:15.883Z,97394.54
2023-03-26T23:43:19.688Z,97398.22
2023-03-26T23:45:22.616Z,97401.52
2023-03-26T23:47:25.217Z,97406.13
2023-03-26T23:49:27.839Z,97406.48
2023-03-26T23:51:30.645Z,97411.49
2023-03-26T23:53:33.149Z,97415.65
2023-03-26T23:55:36.442Z,97422.40
2023-03-26T23:57:40.525Z,97422.52
2023-03-26T23:59:43.702Z,97426.11
